createdAt,value
2017-06-22T00:00:09.162Z,1016.296
2017-06-22T00:03:04.162Z,1016.278
2017-06-22T00:05:59.250Z,1016.233
2017-06-22T00:08:54.312Z,1016.191
2017-06-22T00:11:49.244Z,1016.189
2017-06-22T00:14:44.259Z,1016.190
2017-06-22T00:17:39.235Z,1016.190
2017-06-22T00:20:34.357Z,1016.183
2017-06-22T00:23:29.382Z,1016.157
2017-06-22T00:26:24.520Z,1016.166
2017-06-22T00:29:19.437Z,1016.161
2017-06-22T00:32:14.352Z,1016.131
2017-06-22T00:35:09.497Z,1016.126
2017-06-22T00:38:04.340Z,1016.079
2017-06-22T00:40:59.375Z,1015.984
2017-06-22T00:43:54.421Z,1015.993
2017-06-22T00:46:49.352Z,1016.039
2017-06-22T00:49:44.518Z,1016.015
2017-06-22T00:52:39.415Z,1015.998
2017-06-22T00:55:34.388Z,1015.926
2017-06-22T00:58:29.359Z,1015.876
2017-06-22T01:01:24.343Z,1015.810
2017-06-22T01:04:19.331Z,1015.851
2017-06-22T01:10:09.315Z,1015.761
2017-06-22T01:13:04.276Z,1015.702
2017-06-22T01:15:59.396Z,1015.665
2017-06-22T01:18:54.357Z,1015.611
2017-06-22T01:21:49.181Z,1015.554
2017-06-22T01:24:44.213Z,1015.596
2017-06-22T01:27:39.153Z,1015.632
2017-06-22T01:30:34.123Z,1015.627
2017-06-22T01:33:28.961Z,1015.640
2017-06-22T01:36:23.921Z,1015.669
2017-06-22T01:39:18.808Z,1015.685
2017-06-22T01:42:13.720Z,1015.686
2017-06-22T01:45:08.541Z,1015.706
2017-06-22T01:48:03.416Z,1015.737
2017-06-22T01:50:58.169Z,1015.738
2017-06-22T01:53:53.042Z,1015.694
2017-06-22T01:56:47.787Z,1015.694
2017-06-22T01:59:42.523Z,1015.645
2017-06-22T02:02:37.413Z,1015.575
2017-06-22T02:05:32.247Z,1015.586
2017-06-22T02:08:27.082Z,1015.644
2017-06-22T02:11:21.842Z,1015.640
2017-06-22T02:14:16.716Z,1015.620
2017-06-22T02:17:11.626Z,1015.562
2017-06-22T02:20:06.480Z,1015.496
2017-06-22T02:23:01.665Z,1015.528
2017-06-22T02:25:56.373Z,1015.486
2017-06-22T02:28:51.118Z,1015.447
2017-06-22T02:31:45.849Z,1015.459
2017-06-22T02:34:40.675Z,1015.465
2017-06-22T02:37:35.425Z,1015.516
2017-06-22T02:40:30.250Z,1015.508
2017-06-22T02:43:24.961Z,1015.534
2017-06-22T02:46:19.766Z,1015.532
2017-06-22T02:49:14.452Z,1015.552
2017-06-22T02:52:09.167Z,1015.523
2017-06-22T02:55:03.916Z,1015.476
2017-06-22T02:57:58.561Z,1015.433
2017-06-22T03:00:53.304Z,1015.448
2017-06-22T03:03:48.093Z,1015.433
2017-06-22T03:06:42.691Z,1015.440
2017-06-22T03:09:37.299Z,1015.456
2017-06-22T03:12:31.900Z,1015.449
2017-06-22T03:15:26.428Z,1015.442
2017-06-22T03:18:20.990Z,1015.411
2017-06-22T03:21:15.441Z,1015.347
2017-06-22T03:24:10.005Z,1015.326
2017-06-22T03:27:04.587Z,1015.348
2017-06-22T03:29:59.139Z,1015.344
2017-06-22T03:32:53.520Z,1015.391
2017-06-22T03:36:55.820Z,1015.444
2017-06-22T03:42:18.733Z,1015.386
2017-06-22T03:45:02.422Z,1015.373
2017-06-22T03:47:56.315Z,1015.333
2017-06-22T03:54:36.554Z,1015.265
2017-06-22T03:57:56.156Z,1015.238
2017-06-22T04:00:42.286Z,1015.203
2017-06-22T04:04:44.341Z,1015.166
2017-06-22T04:08:25.577Z,1015.140
2017-06-22T04:13:37.537Z,1015.165
2017-06-22T04:16:21.329Z,1015.132
2017-06-22T04:21:19.641Z,1015.132
2017-06-22T04:33:51.249Z,1015.081
2017-06-22T04:36:34.527Z,1015.064
2017-06-22T04:39:28.168Z,1015.081
2017-06-22T04:42:22.383Z,1015.002
2017-06-22T04:45:17.044Z,1014.942
2017-06-22T04:48:11.632Z,1014.942
2017-06-22T04:54:00.854Z,1014.923
2017-06-22T04:56:55.555Z,1014.878
2017-06-22T04:59:50.334Z,1014.838
2017-06-22T05:02:45.011Z,1014.853
2017-06-22T05:05:39.822Z,1014.845
2017-06-22T05:08:34.634Z,1014.835
2017-06-22T05:11:29.411Z,1014.798
2017-06-22T05:14:24.263Z,1014.795
2017-06-22T05:17:19.018Z,1014.817
2017-06-22T05:20:13.791Z,1014.793
2017-06-22T05:23:08.540Z,1014.601
2017-06-22T05:26:03.128Z,1014.602
2017-06-22T05:28:57.962Z,1014.615
2017-06-22T05:31:53.004Z,1014.632
2017-06-22T05:34:47.986Z,1014.730
2017-06-22T05:37:42.721Z,1014.694
2017-06-22T05:40:37.497Z,1014.614
2017-06-22T05:43:32.304Z,1014.537
2017-06-22T05:46:27.184Z,1014.543
2017-06-22T05:49:22.029Z,1014.459
2017-06-22T05:52:16.843Z,1014.459
2017-06-22T05:55:11.727Z,1014.515
2017-06-22T05:58:06.702Z,1014.504
2017-06-22T06:01:01.532Z,1014.425
2017-06-22T06:03:56.539Z,1014.428
2017-06-22T06:06:51.587Z,1014.466
2017-06-22T06:09:46.526Z,1014.516
2017-06-22T06:12:41.571Z,1014.599
2017-06-22T06:15:36.568Z,1014.567
2017-06-22T06:18:31.678Z,1014.470
2017-06-22T06:21:26.681Z,1014.445
2017-06-22T06:24:21.719Z,1014.480
2017-06-22T06:27:16.792Z,1014.506
2017-06-22T06:30:11.899Z,1014.449
2017-06-22T06:33:06.923Z,1014.332
2017-06-22T06:36:01.947Z,1014.330
2017-06-22T06:38:57.046Z,1014.287
2017-06-22T06:41:52.074Z,1014.332
2017-06-22T06:44:47.100Z,1014.333
2017-06-22T06:47:42.364Z,1014.323
2017-06-22T06:50:37.565Z,1014.330
2017-06-22T06:53:32.637Z,1014.364
2017-06-22T06:56:27.847Z,1014.362
2017-06-22T06:59:23.051Z,1014.394
2017-06-22T07:02:18.173Z,1014.391
2017-06-22T07:05:13.321Z,1014.354
2017-06-22T07:08:08.403Z,1014.295
2017-06-22T07:11:03.585Z,1014.253
2017-06-22T07:13:58.732Z,1014.223
2017-06-22T07:16:53.889Z,1014.134
2017-06-22T07:22:44.232Z,1014.026
2017-06-22T07:25:39.308Z,1014.000
2017-06-22T07:28:34.377Z,1013.993
2017-06-22T07:31:29.442Z,1014.054
2017-06-22T07:34:24.569Z,1014.057
2017-06-22T07:37:19.780Z,1013.979
2017-06-22T07:40:14.810Z,1013.922
2017-06-22T07:43:09.883Z,1013.908
2017-06-22T07:46:05.007Z,1013.889
2017-06-22T07:49:00.151Z,1013.855
2017-06-22T07:51:55.259Z,1013.853
2017-06-22T07:54:50.358Z,1013.845
2017-06-22T07:57:45.685Z,1013.779
2017-06-22T08:00:40.828Z,1013.781
2017-06-22T08:03:35.908Z,1013.803
2017-06-22T08:06:31.008Z,1013.772
2017-06-22T08:09:26.097Z,1013.713
2017-06-22T08:12:21.282Z,1013.611
2017-06-22T08:15:16.402Z,1013.634
2017-06-22T08:18:11.645Z,1013.726
2017-06-22T08:21:07.023Z,1013.636
2017-06-22T08:24:02.442Z,1013.692
2017-06-22T08:26:57.921Z,1013.736
2017-06-22T08:29:53.398Z,1013.781
2017-06-22T08:32:48.877Z,1013.742
2017-06-22T08:35:44.470Z,1013.666
2017-06-22T08:38:40.059Z,1013.607
2017-06-22T08:41:35.879Z,1013.564
2017-06-22T08:44:31.867Z,1013.509
2017-06-22T08:47:27.836Z,1013.502
2017-06-22T08:50:23.866Z,1013.455
2017-06-22T08:53:19.739Z,1013.285
2017-06-22T08:56:15.508Z,1013.228
2017-06-22T08:59:11.381Z,1013.212
2017-06-22T09:02:07.388Z,1013.179
2017-06-22T09:05:03.544Z,1013.150
2017-06-22T09:07:59.377Z,1013.128
2017-06-22T09:10:55.263Z,1013.153
2017-06-22T09:13:51.292Z,1013.084
2017-06-22T09:16:47.268Z,1012.957
2017-06-22T09:19:43.174Z,1012.988
2017-06-22T09:22:39.043Z,1012.916
2017-06-22T09:25:34.879Z,1012.850
2017-06-22T09:28:30.758Z,1012.738
2017-06-22T09:31:26.638Z,1012.708
2017-06-22T09:34:22.454Z,1012.682
2017-06-22T09:37:18.341Z,1012.581
2017-06-22T09:40:14.205Z,1012.513
2017-06-22T09:43:10.105Z,1012.494
2017-06-22T09:46:06.042Z,1012.464
2017-06-22T09:49:02.015Z,1012.475
2017-06-22T09:51:57.961Z,1012.434
2017-06-22T09:54:53.956Z,1012.371
2017-06-22T09:57:49.594Z,1012.357
2017-06-22T10:00:45.605Z,1012.287
2017-06-22T10:03:41.632Z,1012.180
2017-06-22T10:06:37.623Z,1012.138
2017-06-22T10:09:33.745Z,1012.208
2017-06-22T10:12:29.875Z,1012.313
2017-06-22T10:15:26.132Z,1012.457
2017-06-22T10:18:22.459Z,1012.286
2017-06-22T10:21:18.898Z,1012.228
2017-06-22T10:24:15.132Z,1012.144
2017-06-22T10:27:11.197Z,1012.138
2017-06-22T10:30:07.034Z,1012.001
2017-06-22T10:33:02.395Z,1011.901
2017-06-22T10:35:57.754Z,1011.900
2017-06-22T10:38:53.032Z,1011.912
2017-06-22T10:41:48.307Z,1011.973
2017-06-22T10:44:43.598Z,1011.975
2017-06-22T10:47:38.990Z,1011.849
2017-06-22T10:50:34.152Z,1011.953
2017-06-22T10:53:29.427Z,1012.004
2017-06-22T10:56:24.638Z,1012.069
2017-06-22T10:59:19.883Z,1012.107
2017-06-22T11:02:15.089Z,1012.200
2017-06-22T11:05:10.100Z,1012.135
2017-06-22T11:08:05.317Z,1012.101
2017-06-22T11:11:00.235Z,1012.053
2017-06-22T11:13:55.178Z,1012.079
2017-06-22T11:16:50.300Z,1012.130
2017-06-22T11:19:45.370Z,1012.188
2017-06-22T11:22:40.562Z,1012.139
2017-06-22T11:25:35.845Z,1012.035
2017-06-22T11:28:31.152Z,1012.065
2017-06-22T11:31:26.431Z,1012.139
2017-06-22T11:34:21.671Z,1012.155
2017-06-22T11:37:16.937Z,1012.210
2017-06-22T11:40:12.159Z,1012.191
2017-06-22T11:43:07.469Z,1012.066
2017-06-22T11:46:02.713Z,1011.966
2017-06-22T11:48:58.143Z,1012.093
2017-06-22T11:51:53.423Z,1012.095
2017-06-22T11:54:48.784Z,1012.128
2017-06-22T11:57:44.295Z,1012.211
2017-06-22T12:00:39.792Z,1012.353
2017-06-22T12:03:35.377Z,1012.540
2017-06-22T12:06:30.874Z,1012.523
2017-06-22T12:09:26.368Z,1012.495
2017-06-22T12:12:21.913Z,1012.432
2017-06-22T12:15:17.448Z,1012.317
2017-06-22T12:18:12.977Z,1012.442
2017-06-22T12:21:08.446Z,1012.960
2017-06-22T12:24:03.936Z,1013.169
2017-06-22T12:26:59.290Z,1013.368
2017-06-22T12:29:54.790Z,1013.983
2017-06-22T12:32:50.094Z,1014.420
2017-06-22T12:35:45.487Z,1014.951
2017-06-22T12:38:40.816Z,1015.667
2017-06-22T12:41:36.077Z,1016.107
2017-06-22T12:44:31.355Z,1016.320
2017-06-22T12:47:26.523Z,1016.445
2017-06-22T12:50:21.609Z,1016.610
2017-06-22T12:53:16.663Z,1016.515
2017-06-22T12:56:11.599Z,1016.513
2017-06-22T12:59:06.640Z,1016.200
2017-06-22T13:02:01.750Z,1015.821
2017-06-22T13:04:56.762Z,1015.606
2017-06-22T13:07:51.899Z,1014.765
2017-06-22T13:14:33.803Z,1013.704
